Time;durP1;ratioP1;P1;durP2;ratioP2;P2;SDS_P1;SDS_P2;PMS_P1;PMS_P2;Temp;Humidity;BMP_temperature;BMP_pressure;BME280_temperature;BME280_humidity;BME280_pressure;Samples;Min_cycle;Max_cycle;Signal;HPM_P1;HPM_P2
2021/01/29 00:00:19;;;;;;;38.08;20.58;;;5.20;99.50;;;;;;5109738;27;20035;-41
2021/01/29 00:02:44;;;;;;;42.08;22.85;;;5.30;99.40;;;;;;5111686;27;20057;-40
2021/01/29 00:05:11;;;;;;;39.47;21.45;;;5.30;99.40;;;;;;5111938;27;20047;-40
2021/01/29 00:07:37;;;;;;;39.22;21.92;;;5.30;99.40;;;;;;5109755;27;20031;-39
2021/01/29 00:10:04;;;;;;;52.50;25.65;;;5.30;99.40;;;;;;5113723;27;20022;-41
2021/01/29 00:12:30;;;;;;;46.15;23.83;;;5.30;99.40;;;;;;5106635;27;20096;-40
2021/01/29 00:14:55;;;;;;;46.67;25.70;;;5.30;99.40;;;;;;5116384;27;20482;-41
2021/01/29 00:17:21;;;;;;;48.03;24.77;;;5.30;99.40;;;;;;5105851;27;20032;-41
2021/01/29 00:19:46;;;;;;;58.67;26.63;;;5.30;99.40;;;;;;5114685;27;20023;-39
2021/01/29 00:22:16;;;;;;;65.90;28.45;;;5.30;99.40;;;;;;5105558;28;20156;-42
2021/01/29 00:24:42;;;;;;;52.28;27.00;;;5.20;99.40;;;;;;5116325;27;20015;-41
2021/01/29 00:27:07;;;;;;;50.10;25.45;;;5.20;99.40;;;;;;5105813;28;20034;-40
2021/01/29 00:29:33;;;;;;;54.22;27.15;;;5.20;99.50;;;;;;5117435;27;20038;-40
2021/01/29 00:31:59;;;;;;;59.80;28.35;;;5.20;99.50;;;;;;5104636;28;20019;-41
2021/01/29 00:34:26;;;;;;;54.65;27.85;;;5.20;99.50;;;;;;5117816;27;20031;-40
2021/01/29 00:36:51;;;;;;;63.47;28.98;;;5.30;99.60;;;;;;5104859;27;20032;-40
2021/01/29 00:39:17;;;;;;;62.80;27.90;;;5.20;99.60;;;;;;5113796;27;20023;-42
2021/01/29 00:41:45;;;;;;;91.93;31.33;;;5.20;99.60;;;;;;5107671;27;20023;-41
2021/01/29 00:44:10;;;;;;;80.40;29.50;;;5.20;99.60;;;;;;5111568;27;20465;-41
2021/01/29 00:46:36;;;;;;;76.38;30.30;;;5.30;99.70;;;;;;5109611;27;20031;-40
2021/01/29 00:49:02;;;;;;;70.40;30.33;;;5.20;99.70;;;;;;5109295;27;20019;-40
2021/01/29 00:51:27;;;;;;;78.63;30.80;;;5.20;99.70;;;;;;5112075;27;20028;-40
2021/01/29 00:53:53;;;;;;;81.63;32.58;;;5.30;99.70;;;;;;5106050;27;20126;-41
2021/01/29 00:56:18;;;;;;;92.38;31.88;;;5.30;99.80;;;;;;5115668;27;20077;-41
2021/01/29 00:58:47;;;;;;;82.47;32.53;;;5.20;99.80;;;;;;5104809;27;20042;-40
2021/01/29 01:01:14;;;;;;;101.55;33.08;;;5.30;99.80;;;;;;5116306;27;20067;-39
2021/01/29 01:03:39;;;;;;;94.68;33.10;;;5.20;99.80;;;;;;5104932;27;20015;-39
2021/01/29 01:06:05;;;;;;;76.47;31.75;;;5.30;99.90;;;;;;5114917;27;20047;-40
2021/01/29 01:08:30;;;;;;;66.20;30.13;;;5.20;99.90;;;;;;5104227;28;20027;-39
2021/01/29 01:10:56;;;;;;;82.53;31.40;;;5.30;99.90;;;;;;5116666;27;20440;-39
2021/01/29 01:13:22;;;;;;;82.60;30.80;;;5.30;99.90;;;;;;5104218;28;20122;-41
2021/01/29 01:15:47;;;;;;;74.55;30.58;;;5.30;99.90;;;;;;5115524;27;20031;-40
2021/01/29 01:18:13;;;;;;;70.18;29.73;;;5.30;99.90;;;;;;5105480;28;20039;-41
2021/01/29 01:20:38;;;;;;;73.45;30.25;;;5.30;99.90;;;;;;5112681;27;20098;-40
2021/01/29 01:23:04;;;;;;;98.22;31.33;;;5.30;99.90;;;;;;5107636;28;20471;-40
2021/01/29 01:25:30;;;;;;;82.65;30.48;;;5.30;99.90;;;;;;5110739;27;20091;-40
2021/01/29 01:27:56;;;;;;;88.45;32.60;;;5.40;99.90;;;;;;5109626;27;20806;-41
2021/01/29 01:30:28;;;;;;;75.55;28.95;;;5.40;99.90;;;;;;5108418;27;20120;-41
2021/01/29 01:32:54;;;;;;;72.10;29.52;;;5.40;99.90;;;;;;5112277;28;20026;-41
2021/01/29 01:35:20;;;;;;;78.65;30.55;;;5.40;99.90;;;;;;5106166;28;20443;-43
2021/01/29 01:37:46;;;;;;;87.63;32.70;;;5.40;99.90;;;;;;5113636;28;20042;-41
2021/01/29 01:40:13;;;;;;;90.88;32.17;;;5.40;99.90;;;;;;5105433;28;20019;-40
2021/01/29 01:42:38;;;;;;;92.80;32.97;;;5.40;99.90;;;;;;5114487;28;20035;-42
2021/01/29 01:45:27;;;;;;;87.65;34.33;;;5.40;99.90;;;;;;5105124;28;20023;-40
2021/01/29 01:47:57;;;;;;;82.45;30.17;;;5.50;99.90;;;;;;5114820;28;20032;-41
2021/01/29 01:50:28;;;;;;;127.30;36.47;;;5.40;99.90;;;;;;5105188;28;20114;-41
2021/01/29 01:52:55;;;;;;;76.75;30.10;;;5.50;99.90;;;;;;5115296;28;20103;-41
2021/01/29 01:55:27;;;;;;;76.65;29.95;;;5.50;99.90;;;;;;5104208;28;20058;-40
2021/01/29 01:57:55;;;;;;;79.10;31.40;;;5.50;99.90;;;;;;5115133;28;20402;-41
2021/01/29 02:00:25;;;;;;;97.68;33.85;;;5.50;99.90;;;;;;5103804;28;20027;-41
2021/01/29 02:02:56;;;;;;;86.85;32.67;;;5.50;99.90;;;;;;5097192;28;20062;-41
2021/01/29 02:05:29;;;;;;;69.93;28.75;;;5.50;99.90;;;;;;5104183;28;20058;-39
2021/01/29 02:07:57;;;;;;;64.30;27.77;;;5.50;99.90;;;;;;5116057;28;20680;-41
2021/01/29 02:10:25;;;;;;;72.43;29.55;;;5.50;99.90;;;;;;5103318;28;20019;-40
2021/01/29 02:12:51;;;;;;;68.47;30.52;;;5.60;99.90;;;;;;5116324;28;20051;-40
2021/01/29 02:15:19;;;;;;;77.57;30.48;;;5.60;99.90;;;;;;5103811;28;20028;-39
2021/01/29 02:18:22;;;;;;;98.28;33.72;;;5.60;99.90;;;;;;5115809;27;20031;-41
2021/01/29 02:21:03;;;;;;;64.88;28.52;;;5.60;99.90;;;;;;5107403;28;20028;-38
2021/01/29 02:24:19;;;;;;;61.17;26.52;;;5.60;99.90;;;;;;5119652;27;20075;-40
2021/01/29 02:26:56;;;;;;;147.30;35.92;;;5.60;99.90;;;;;;5108737;27;20110;-40
2021/01/29 02:29:40;;;;;;;102.95;34.53;;;5.60;99.90;;;;;;5116827;27;20034;-40
2021/01/29 02:32:27;;;;;;;61.20;26.83;;;5.70;99.90;;;;;;5126061;27;20063;-38
2021/01/29 02:35:20;;;;;;;68.85;29.50;;;5.70;99.90;;;;;;5119338;27;20034;-40
2021/01/29 02:38:22;;;;;;;82.50;32.33;;;5.70;99.90;;;;;;5121385;27;20138;-39
2021/01/29 02:41:21;;;;;;;105.38;34.45;;;5.70;99.90;;;;;;5125517;27;20027;-40
2021/01/29 02:44:14;;;;;;;79.22;30.80;;;5.70;99.90;;;;;;5114233;27;20479;-39
2021/01/29 02:47:08;;;;;;;69.93;30.02;;;5.70;99.90;;;;;;5106742;28;20081;-39
2021/01/29 02:50:00;;;;;;;73.53;30.58;;;5.70;99.90;;;;;;5107641;27;20031;-39
2021/01/29 02:52:39;;;;;;;97.93;32.47;;;5.80;99.90;;;;;;5125511;27;20126;-40
2021/01/29 02:55:25;;;;;;;66.18;29.13;;;5.80;99.90;;;;;;5116377;27;20023;-40
2021/01/29 02:57:57;;;;;;;54.75;25.75;;;5.80;99.90;;;;;;5126138;27;20079;-40
2021/01/29 03:00:52;;;;;;;53.80;24.77;;;5.90;99.90;;;;;;5115533;27;20565;-38
2021/01/29 03:03:20;;;;;;;54.40;24.73;;;5.90;99.90;;;;;;5115267;27;20088;-40
2021/01/29 03:06:13;;;;;;;60.58;25.42;;;5.90;99.90;;;;;;5117022;27;20027;-39
2021/01/29 03:08:43;;;;;;;102.55;34.85;;;6.00;99.90;;;;;;5122281;27;20031;-40
2021/01/29 03:11:15;;;;;;;83.47;31.10;;;6.00;99.90;;;;;;5119279;27;20041;-39
2021/01/29 03:13:46;;;;;;;73.85;30.92;;;6.00;99.90;;;;;;5123286;27;20503;-39
2021/01/29 03:16:22;;;;;;;75.65;31.23;;;6.10;99.90;;;;;;5118187;27;20370;-39
2021/01/29 03:18:57;;;;;;;94.35;31.70;;;6.10;99.90;;;;;;5123973;27;20035;-38
2021/01/29 03:21:28;;;;;;;76.10;28.50;;;6.10;99.90;;;;;;5118169;27;20140;-42
2021/01/29 03:24:05;;;;;;;73.07;28.00;;;6.10;99.90;;;;;;5124552;27;20048;-39
2021/01/29 03:26:36;;;;;;;70.30;29.98;;;6.10;99.90;;;;;;5116998;27;20766;-37
2021/01/29 03:29:09;;;;;;;73.78;29.38;;;6.20;99.90;;;;;;5124259;27;20023;-39
2021/01/29 03:31:37;;;;;;;70.95;27.58;;;6.20;99.90;;;;;;5116629;27;20060;-40
2021/01/29 03:34:08;;;;;;;71.82;28.65;;;6.20;99.90;;;;;;5124974;27;20027;-41
2021/01/29 03:36:43;;;;;;;68.63;27.13;;;6.20;99.90;;;;;;5115159;27;20046;-41
2021/01/29 03:39:16;;;;;;;68.47;27.02;;;6.30;99.90;;;;;;5125456;27;20326;-41
2021/01/29 03:41:43;;;;;;;;;;;6.30;99.90;;;;;;5115487;27;20022;-39
2021/01/29 03:44:40;;;;;;;57.67;24.50;;;6.30;99.90;;;;;;5125921;27;19971;-40
2021/01/29 03:47:12;;;;;;;59.17;24.80;;;6.30;99.90;;;;;;5116587;27;20763;-40
2021/01/29 03:49:49;;;;;;;52.35;23.00;;;6.40;99.90;;;;;;5124685;27;20027;-41
2021/01/29 03:52:24;;;;;;;61.30;23.55;;;6.40;99.90;;;;;;5116608;27;20031;-41
2021/01/29 03:55:23;;;;;;;51.30;22.55;;;6.40;99.90;;;;;;5124602;27;20427;-41
2021/01/29 03:58:07;;;;;;;48.33;21.30;;;6.40;99.90;;;;;;5079743;27;20134;-40
2021/01/29 04:00:39;;;;;;;50.40;23.75;;;6.50;99.90;;;;;;5121759;27;20035;-40
2021/01/29 04:03:41;;;;;;;49.13;22.33;;;6.50;99.90;;;;;;5112104;27;20058;-38
2021/01/29 04:06:06;;;;;;;53.97;21.35;;;6.60;99.90;;;;;;5114759;27;20411;-41
2021/01/29 04:08:54;;;;;;;45.95;20.75;;;6.60;99.90;;;;;;5109023;27;20024;-40
2021/01/29 04:11:27;;;;;;;43.08;20.48;;;6.60;99.90;;;;;;5115261;27;20040;-40
2021/01/29 04:13:57;;;;;;;49.03;21.50;;;6.60;99.90;;;;;;5107764;27;20599;-40
2021/01/29 04:16:34;;;;;;;44.40;20.15;;;6.70;99.90;;;;;;5113657;27;20027;-41
2021/01/29 04:19:02;;;;;;;30.45;16.42;;;6.60;99.90;;;;;;5108591;27;20114;-40
2021/01/29 04:21:39;;;;;;;39.78;18.75;;;6.70;99.90;;;;;;5112809;27;20148;-41
2021/01/29 04:24:07;;;;;;;35.78;19.45;;;6.70;99.90;;;;;;5108841;27;20477;-41
2021/01/29 04:26:38;;;;;;;38.08;19.02;;;6.80;99.90;;;;;;5111949;27;20023;-44
2021/01/29 04:29:13;;;;;;;36.53;17.60;;;6.80;99.90;;;;;;5111029;27;20119;-40
2021/01/29 04:31:40;;;;;;;30.52;16.70;;;6.80;99.90;;;;;;5110170;27;20538;-40
2021/01/29 04:34:17;;;;;;;38.97;18.95;;;6.80;99.90;;;;;;5111543;27;20063;-40
2021/01/29 04:36:46;;;;;;;32.38;16.45;;;6.90;99.90;;;;;;5109538;27;20036;-39
2021/01/29 04:39:22;;;;;;;27.92;14.45;;;6.90;99.90;;;;;;5112104;27;20035;-40
2021/01/29 04:42:02;;;;;;;22.33;12.77;;;7.00;99.90;;;;;;5109104;27;20015;-41
2021/01/29 04:44:54;;;;;;;25.98;13.50;;;7.00;99.90;;;;;;5110245;27;20107;-41
2021/01/29 04:47:45;;;;;;;18.35;11.45;;;7.00;99.90;;;;;;5112744;27;20442;-41
2021/01/29 04:50:23;;;;;;;22.60;11.98;;;7.10;99.90;;;;;;5106865;27;20042;-40
2021/01/29 04:53:30;;;;;;;18.00;11.88;;;7.10;99.90;;;;;;5114183;27;20613;-40
2021/01/29 04:56:20;;;;;;;18.95;11.40;;;7.20;99.90;;;;;;5069499;28;20043;-40
2021/01/29 04:59:18;;;;;;;20.88;13.05;;;7.20;99.90;;;;;;5111334;27;20589;-40
2021/01/29 05:02:21;;;;;;;19.42;11.32;;;7.20;99.90;;;;;;5123423;27;20027;-40
2021/01/29 05:05:20;;;;;;;17.05;10.50;;;7.30;99.90;;;;;;5115303;27;20027;-43
2021/01/29 05:08:23;;;;;;;20.90;11.93;;;7.30;99.90;;;;;;5118539;27;20450;-40
2021/01/29 05:11:26;;;;;;;17.87;10.93;;;7.30;99.90;;;;;;5069260;27;20080;-41
2021/01/29 05:14:35;;;;;;;18.73;11.13;;;7.30;99.90;;;;;;5111046;27;21101;-41
2021/01/29 05:17:26;;;;;;;17.75;9.98;;;7.40;99.90;;;;;;5112431;27;20046;-38
2021/01/29 05:20:04;;;;;;;15.13;9.20;;;7.40;99.90;;;;;;5115273;27;20408;-41
2021/01/29 05:22:53;;;;;;;13.63;9.50;;;7.40;99.90;;;;;;5105399;28;20343;-41
2021/01/29 05:25:50;;;;;;;14.50;9.43;;;7.40;99.90;;;;;;5114236;27;20034;-41
2021/01/29 05:28:56;;;;;;;14.82;10.38;;;7.40;99.90;;;;;;5120896;27;20046;-40
2021/01/29 05:31:33;;;;;;;12.07;8.50;;;7.40;99.90;;;;;;5121774;27;20035;-40
2021/01/29 05:34:17;;;;;;;23.08;8.82;;;7.50;99.90;;;;;;5114832;27;20059;-41
2021/01/29 05:37:10;;;;;;;13.43;8.70;;;7.50;99.90;;;;;;5122433;28;20103;-40
2021/01/29 05:39:55;;;;;;;12.98;8.27;;;7.50;99.90;;;;;;5111838;28;20050;-39
2021/01/29 05:42:31;;;;;;;10.77;7.78;;;7.50;99.90;;;;;;5104584;28;20038;-39
2021/01/29 05:45:28;;;;;;;18.42;9.20;;;7.50;99.90;;;;;;5116644;28;20019;-39
2021/01/29 05:47:53;;;;;;;12.13;8.35;;;7.50;99.90;;;;;;5103372;28;20039;-41
2021/01/29 05:50:44;;;;;;;14.18;8.48;;;7.50;99.90;;;;;;5117309;28;20026;-41
2021/01/29 05:53:24;;;;;;;14.85;8.48;;;7.50;99.90;;;;;;5107225;28;20030;-38
2021/01/29 05:56:18;;;;;;;14.38;9.20;;;7.50;99.90;;;;;;5122074;27;20510;-42
2021/01/29 05:59:08;;;;;;;16.23;10.57;;;7.60;99.90;;;;;;5109460;27;20035;-42
2021/01/29 06:01:39;;;;;;;12.88;9.88;;;7.60;99.90;;;;;;5118150;27;20039;-41
2021/01/29 06:04:25;;;;;;;14.75;10.52;;;7.70;99.90;;;;;;5127415;27;20045;-42
2021/01/29 06:07:07;;;;;;;12.98;9.75;;;7.70;99.90;;;;;;5119566;27;20103;-39
2021/01/29 06:09:54;;;;;;;11.47;9.20;;;7.80;99.90;;;;;;5124499;27;20024;-41
2021/01/29 06:12:53;;;;;;;11.88;9.02;;;7.90;99.90;;;;;;5121591;27;20115;-38
2021/01/29 06:15:41;;;;;;;9.75;8.15;;;7.90;99.90;;;;;;5119906;27;20036;-40
2021/01/29 06:18:48;;;;;;;9.80;7.55;;;8.00;99.90;;;;;;5127172;27;20139;-40
2021/01/29 06:21:38;;;;;;;10.80;7.60;;;8.10;99.90;;;;;;5115250;27;20084;-40
2021/01/29 06:24:19;;;;;;;9.55;6.57;;;8.20;99.90;;;;;;5127930;27;20413;-41
2021/01/29 06:27:20;;;;;;;8.60;6.88;;;8.30;99.90;;;;;;5115637;27;20019;-41
2021/01/29 06:30:14;;;;;;;10.88;6.95;;;8.30;99.90;;;;;;5126259;27;20356;-41
2021/01/29 06:32:58;;;;;;;9.70;6.95;;;8.40;99.90;;;;;;5118392;27;20019;-42
2021/01/29 06:35:47;;;;;;;8.20;6.13;;;8.50;99.90;;;;;;5124849;27;20059;-41
2021/01/29 06:38:18;;;;;;;8.93;6.45;;;8.50;99.90;;;;;;5121244;27;20499;-41
2021/01/29 06:41:25;;;;;;;8.07;6.15;;;8.60;99.90;;;;;;5122694;27;20027;-41
2021/01/29 06:44:10;;;;;;;5.90;5.30;;;8.70;99.90;;;;;;5090068;27;20134;-41
2021/01/29 06:46:55;;;;;;;7.50;6.15;;;8.70;99.90;;;;;;5117377;27;20563;-41
2021/01/29 06:50:01;;;;;;;5.95;5.35;;;8.70;99.90;;;;;;5107683;28;20027;-39
2021/01/29 06:52:50;;;;;;;5.90;5.00;;;8.70;99.90;;;;;;5119157;27;20497;-40
2021/01/29 06:55:46;;;;;;;8.70;4.57;;;8.80;99.90;;;;;;5107637;27;20221;-40
2021/01/29 06:58:31;;;;;;;4.38;3.97;;;8.70;99.90;;;;;;5122014;27;20055;-40
2021/01/29 07:01:16;;;;;;;4.57;4.15;;;8.80;99.90;;;;;;5124492;27;20712;-41
2021/01/29 07:04:03;;;;;;;6.00;4.03;;;8.80;99.90;;;;;;5117794;27;20131;-41
2021/01/29 07:06:51;;;;;;;4.47;4.05;;;8.80;99.90;;;;;;5123537;27;20099;-41
2021/01/29 07:09:41;;;;;;;6.75;4.32;;;8.80;99.90;;;;;;5121645;27;20076;-42
2021/01/29 07:12:25;;;;;;;4.82;3.70;;;8.80;99.90;;;;;;5119955;27;20047;-42
2021/01/29 07:15:22;;;;;;;4.28;3.75;;;8.80;99.90;;;;;;5109472;27;20123;-42
2021/01/29 07:18:04;;;;;;;7.10;3.95;;;8.80;99.90;;;;;;5111068;27;20039;-41
2021/01/29 07:21:00;;;;;;;5.43;4.00;;;8.80;99.90;;;;;;5106755;28;20549;-41
2021/01/29 07:23:46;;;;;;;6.10;4.22;;;8.80;99.90;;;;;;5119787;27;20175;-42
2021/01/29 07:26:36;;;;;;;7.32;4.82;;;8.80;99.90;;;;;;5106978;28;20092;-41
2021/01/29 07:29:42;;;;;;;5.43;4.53;;;8.80;99.90;;;;;;5124973;27;20023;-41
2021/01/29 07:32:44;;;;;;;7.72;4.78;;;8.80;99.90;;;;;;5019687;28;20055;-42
2021/01/29 07:35:22;;;;;;;7.97;5.18;;;8.80;99.90;;;;;;5125279;27;20045;-43
2021/01/29 07:37:54;;;;;;;10.27;6.10;;;8.80;99.90;;;;;;5120811;27;20691;-43
2021/01/29 07:40:57;;;;;;;9.77;6.10;;;8.80;99.90;;;;;;5121442;27;20106;-42
2021/01/29 07:43:38;;;;;;;7.15;5.38;;;8.80;99.90;;;;;;5121061;27;20117;-42
2021/01/29 07:46:46;;;;;;;6.57;5.35;;;8.80;99.90;;;;;;5126073;27;20109;-41
2021/01/29 07:49:40;;;;;;;7.75;4.78;;;8.80;99.90;;;;;;5120578;27;20095;-40
2021/01/29 07:52:30;;;;;;;5.18;4.15;;;8.90;99.90;;;;;;5107004;28;20142;-41
2021/01/29 07:55:23;;;;;;;4.70;3.70;;;8.90;99.90;;;;;;5126335;27;20390;-42
2021/01/29 07:58:17;;;;;;;3.72;2.88;;;8.90;99.90;;;;;;5122426;27;20744;-43
2021/01/29 08:01:00;;;;;;;4.05;2.85;;;8.90;99.90;;;;;;5122476;27;20127;-42
2021/01/29 08:03:43;;;;;;;3.08;2.42;;;8.90;99.90;;;;;;5125679;27;20019;-42
2021/01/29 08:06:17;;;;;;;3.60;2.60;;;8.90;99.90;;;;;;5124510;27;20058;-42
2021/01/29 08:09:01;;;;;;;4.43;2.60;;;8.90;99.90;;;;;;5121460;27;20034;-43
2021/01/29 08:11:27;;;;;;;4.72;2.55;;;8.90;99.90;;;;;;5126260;27;20462;-43
2021/01/29 08:13:59;;;;;;;3.65;2.40;;;8.90;99.90;;;;;;5121684;27;20106;-42
2021/01/29 08:16:53;;;;;;;3.40;2.70;;;9.00;99.90;;;;;;5125917;27;20114;-42
2021/01/29 08:19:36;;;;;;;3.03;2.50;;;9.00;99.90;;;;;;5112144;27;20110;-42
2021/01/29 08:22:34;;;;;;;5.18;3.40;;;9.00;99.90;;;;;;5118032;27;20541;-40
2021/01/29 08:25:17;;;;;;;5.13;3.90;;;9.00;99.90;;;;;;5114797;27;20039;-44
2021/01/29 08:27:50;;;;;;;;;;;9.00;99.90;;;;;;5105722;28;20024;-41
2021/01/29 08:30:50;;;;;;;9.63;4.53;;;9.00;99.90;;;;;;5117689;27;19911;-42
2021/01/29 08:33:34;;;;;;;10.25;4.20;;;9.00;99.90;;;;;;5124969;27;20714;-42
2021/01/29 08:36:08;;;;;;;8.93;4.30;;;9.10;99.90;;;;;;5124969;27;20062;-40
2021/01/29 08:38:43;;;;;;;10.27;4.13;;;9.10;99.90;;;;;;5115438;27;20351;-39
2021/01/29 08:41:41;;;;;;;7.28;3.55;;;9.10;99.90;;;;;;5114633;27;20023;-41
2021/01/29 08:44:15;;;;;;;6.20;3.10;;;9.10;99.90;;;;;;5124966;27;20100;-41
2021/01/29 08:46:44;;;;;;;5.78;2.70;;;9.20;99.90;;;;;;5116457;27;20305;-42
2021/01/29 08:49:34;;;;;;;9.65;2.90;;;9.20;99.90;;;;;;5106157;27;20132;-42
2021/01/29 08:52:16;;;;;;;11.48;3.25;;;9.20;99.90;;;;;;5116211;27;20596;-41
2021/01/29 08:54:59;;;;;;;12.05;3.47;;;9.20;99.90;;;;;;5105985;27;20038;-43
2021/01/29 08:58:05;;;;;;;15.60;3.92;;;9.20;99.90;;;;;;5114769;27;20070;-42
2021/01/29 09:00:35;;;;;;;15.20;4.45;;;9.20;99.90;;;;;;5119755;27;20516;-43
2021/01/29 09:03:17;;;;;;;20.40;4.55;;;9.20;99.90;;;;;;5118741;27;20038;-41
2021/01/29 09:05:45;;;;;;;22.23;4.20;;;9.20;99.90;;;;;;5117163;27;20044;-42
2021/01/29 09:08:18;;;;;;;17.00;4.13;;;9.20;99.90;;;;;;5118162;27;20487;-42
2021/01/29 09:11:19;;;;;;;18.25;4.80;;;9.20;99.90;;;;;;5123051;27;20498;-41
2021/01/29 09:13:45;;;;;;;12.35;3.55;;;9.20;99.90;;;;;;5119909;27;20035;-43
2021/01/29 09:16:17;;;;;;;12.32;3.00;;;9.20;99.90;;;;;;5120917;27;20084;-41
2021/01/29 09:19:04;;;;;;;17.05;4.57;;;9.20;99.90;;;;;;5120111;27;20470;-42
2021/01/29 09:21:56;;;;;;;16.88;3.40;;;9.20;99.90;;;;;;5121938;27;20105;-42
2021/01/29 09:24:39;;;;;;;13.23;3.75;;;9.20;99.90;;;;;;5125151;27;20042;-42
2021/01/29 09:27:04;;;;;;;;;;;9.20;99.90;;;;;;5120309;27;20019;-42
2021/01/29 09:29:43;;;;;;;24.92;4.75;;;9.20;99.90;;;;;;5124731;27;19915;-42
2021/01/29 09:32:17;;;;;;;24.67;5.53;;;9.10;99.90;;;;;;5123136;27;20101;-42
2021/01/29 09:34:50;;;;;;;22.08;4.43;;;9.10;99.90;;;;;;5122889;27;20837;-42
2021/01/29 09:37:25;;;;;;;17.38;4.50;;;9.00;99.90;;;;;;5123832;27;20034;-42
2021/01/29 09:39:54;;;;;;;21.83;4.72;;;9.10;99.90;;;;;;5122787;28;20496;-43
2021/01/29 09:42:41;;;;;;;20.98;4.60;;;9.00;99.90;;;;;;5120985;28;20031;-42
2021/01/29 09:45:17;;;;;;;20.80;5.38;;;9.00;99.90;;;;;;5114662;28;20042;-42
2021/01/29 09:47:46;;;;;;;25.90;5.35;;;9.00;99.90;;;;;;5113656;28;20102;-40
2021/01/29 09:50:23;;;;;;;24.23;5.45;;;9.00;99.90;;;;;;5123889;28;20031;-41
2021/01/29 09:53:04;;;;;;;29.15;5.43;;;9.00;99.90;;;;;;5122374;28;20023;-42
2021/01/29 09:55:58;;;;;;;26.75;5.82;;;9.00;99.90;;;;;;5123886;28;20494;-42
2021/01/29 09:58:36;;;;;;;25.02;3.90;;;9.00;99.90;;;;;;5111524;28;20031;-42
2021/01/29 10:01:16;;;;;;;29.83;4.82;;;9.00;99.90;;;;;;5124872;28;20027;-43
2021/01/29 10:04:01;;;;;;;25.75;4.82;;;8.90;99.90;;;;;;5111197;28;20038;-41
2021/01/29 10:06:32;;;;;;;32.75;4.28;;;9.00;99.90;;;;;;5124741;28;20102;-42
2021/01/29 10:09:09;;;;;;;32.55;4.50;;;9.00;99.90;;;;;;5111634;28;20373;-42
2021/01/29 10:11:55;;;;;;;31.42;4.85;;;9.00;99.90;;;;;;5125072;28;20209;-42
2021/01/29 10:14:27;;;;;;;31.60;6.03;;;9.00;99.90;;;;;;5112418;28;20035;-43
2021/01/29 10:16:55;;;;;;;28.75;5.32;;;9.00;99.90;;;;;;5124625;28;20051;-43
2021/01/29 10:19:41;;;;;;;24.58;4.90;;;9.00;99.90;;;;;;5111878;28;20050;-42
2021/01/29 10:22:17;;;;;;;27.13;4.75;;;9.00;99.90;;;;;;5123196;28;20035;-42
2021/01/29 10:25:01;;;;;;;27.27;4.72;;;9.00;99.90;;;;;;5106954;28;20077;-42
2021/01/29 10:28:08;;;;;;;26.65;5.32;;;9.00;99.90;;;;;;5101607;28;20019;-43
2021/01/29 10:30:45;;;;;;;32.25;5.10;;;9.00;99.90;;;;;;5053310;28;20040;-43
2021/01/29 10:33:18;;;;;;;30.23;5.00;;;9.10;99.90;;;;;;5108833;28;20102;-43
2021/01/29 10:36:06;;;;;;;24.83;4.75;;;9.10;99.90;;;;;;5111772;28;20114;-42
2021/01/29 10:38:48;;;;;;;20.67;4.07;;;9.20;99.90;;;;;;5121966;27;20028;-41
2021/01/29 10:41:22;;;;;;;25.73;5.05;;;9.20;99.90;;;;;;5128843;27;20023;-42
2021/01/29 10:44:10;;;;;;;19.90;4.63;;;9.20;99.90;;;;;;5123591;27;20027;-42
2021/01/29 10:47:08;;;;;;;34.72;5.55;;;9.30;99.90;;;;;;5109835;27;20019;-43
2021/01/29 10:49:50;;;;;;;27.85;5.55;;;9.40;99.90;;;;;;5102064;27;20063;-42
2021/01/29 10:52:34;;;;;;;30.67;5.82;;;9.40;99.90;;;;;;5127037;27;20513;-41
2021/01/29 10:55:04;;;;;;;38.00;5.15;;;9.50;99.90;;;;;;5116571;27;20500;-43
2021/01/29 10:57:52;;;;;;;22.38;4.03;;;9.50;99.90;;;;;;5126782;27;20039;-43
2021/01/29 11:00:21;;;;;;;24.95;4.38;;;9.50;99.90;;;;;;5115388;27;20035;-43
2021/01/29 11:02:58;;;;;;;30.90;4.15;;;9.60;99.90;;;;;;5105488;28;20510;-44
2021/01/29 11:05:28;;;;;;;23.45;4.35;;;9.60;99.90;;;;;;5107794;27;20455;-43
2021/01/29 11:08:02;;;;;;;19.33;3.90;;;9.70;99.90;;;;;;5126082;27;20023;-42
2021/01/29 11:10:33;;;;;;;29.05;4.70;;;9.70;99.90;;;;;;5122882;27;20112;-43
2021/01/29 11:13:21;;;;;;;20.77;3.22;;;9.80;99.90;;;;;;5107828;27;20040;-42
2021/01/29 11:15:58;;;;;;;23.15;3.65;;;9.90;99.90;;;;;;5118799;27;20118;-43
2021/01/29 11:18:30;;;;;;;19.00;3.65;;;10.00;99.90;;;;;;5106842;28;20039;-42
2021/01/29 11:21:19;;;;;;;27.35;3.78;;;10.00;99.90;;;;;;5118802;27;20034;-41
2021/01/29 11:24:08;;;;;;;26.38;3.75;;;10.10;99.90;;;;;;5061453;28;20035;-42
2021/01/29 11:26:48;;;;;;;26.40;3.97;;;10.10;99.90;;;;;;5114095;27;20400;-41
2021/01/29 11:29:28;;;;;;;23.90;3.75;;;10.20;99.90;;;;;;5107517;27;20057;-42
2021/01/29 11:32:28;;;;;;;22.88;4.70;;;10.20;99.90;;;;;;5114348;27;20511;-41
2021/01/29 11:35:15;;;;;;;22.35;4.78;;;10.20;99.90;;;;;;5125698;27;20027;-41
2021/01/29 11:38:09;;;;;;;19.98;3.88;;;10.20;99.90;;;;;;5113879;27;20059;-42
2021/01/29 11:40:55;;;;;;;21.67;3.67;;;10.20;99.90;;;;;;5122218;27;20019;-42
2021/01/29 11:43:56;;;;;;;16.88;4.47;;;10.20;99.90;;;;;;5113596;27;20043;-41
2021/01/29 11:46:36;;;;;;;20.65;4.25;;;10.20;99.90;;;;;;5119520;27;20216;-42
2021/01/29 11:49:19;;;;;;;21.42;4.32;;;10.20;99.90;;;;;;5112262;27;20117;-41
2021/01/29 11:52:26;;;;;;;26.77;5.40;;;10.20;99.90;;;;;;5106981;27;20463;-39
2021/01/29 11:55:05;;;;;;;21.05;4.32;;;10.30;99.90;;;;;;5105846;28;20113;-41
2021/01/29 11:57:58;;;;;;;21.08;4.07;;;10.30;99.90;;;;;;5112379;27;20061;-41
2021/01/29 12:00:35;;;;;;;25.02;4.80;;;10.40;99.70;;;;;;5122049;27;20391;-44
2021/01/29 12:03:20;;;;;;;20.35;4.53;;;10.40;99.70;;;;;;5121081;27;20075;-42
2021/01/29 12:05:58;;;;;;;17.63;5.03;;;10.40;99.60;;;;;;5120577;27;20960;-39
2021/01/29 12:08:51;;;;;;;20.10;4.15;;;10.40;99.50;;;;;;5124059;27;20023;-43
2021/01/29 12:11:47;;;;;;;20.48;4.70;;;10.50;99.60;;;;;;5121667;27;20398;-42
2021/01/29 12:14:27;;;;;;;25.35;4.07;;;10.50;99.20;;;;;;5125801;27;20035;-42
2021/01/29 12:17:00;;;;;;;28.77;4.65;;;10.40;99.20;;;;;;5122997;27;20090;-42
2021/01/29 12:19:35;;;;;;;23.33;5.03;;;10.40;99.10;;;;;;5118181;27;20182;-44
2021/01/29 12:22:28;;;;;;;26.83;4.45;;;10.40;99.00;;;;;;5121911;27;20023;-42
2021/01/29 12:25:12;;;;;;;;;;;10.40;99.00;;;;;;5120325;27;20020;-42
2021/01/29 12:27:54;;;;;;;19.52;4.07;;;10.40;99.00;;;;;;5117715;27;19907;-42
2021/01/29 12:30:26;;;;;;;18.77;3.85;;;10.40;99.00;;;;;;5123634;27;20039;-42
2021/01/29 12:33:05;;;;;;;18.95;3.65;;;10.40;99.00;;;;;;5121292;27;20027;-41
2021/01/29 12:35:46;;;;;;;18.48;4.65;;;10.40;98.80;;;;;;5108387;27;20064;-42
2021/01/29 12:38:28;;;;;;;28.35;4.93;;;10.40;98.80;;;;;;5115074;27;20107;-42
2021/01/29 12:41:14;;;;;;;38.13;11.50;;;10.40;98.70;;;;;;5104906;27;20023;-41
2021/01/29 12:43:58;;;;;;;24.95;6.22;;;10.40;98.70;;;;;;5106129;27;20041;-41
2021/01/29 12:46:30;;;;;;;24.77;4.72;;;10.30;98.60;;;;;;5123618;27;20487;-42
2021/01/29 12:49:12;;;;;;;21.38;4.10;;;10.30;98.60;;;;;;5123345;27;20080;-42
2021/01/29 12:52:12;;;;;;;14.95;3.47;;;10.30;98.70;;;;;;5105306;28;20088;-42
2021/01/29 12:54:43;;;;;;;17.83;3.53;;;10.20;98.80;;;;;;5117459;27;20034;-42
2021/01/29 12:57:21;;;;;;;16.27;3.65;;;10.10;98.90;;;;;;5109811;27;20039;-42
2021/01/29 12:59:53;;;;;;;16.38;3.65;;;10.10;99.00;;;;;;5121379;27;20383;-41
2021/01/29 13:02:37;;;;;;;16.77;3.60;;;10.10;98.90;;;;;;5121715;27;20023;-42
2021/01/29 13:05:13;;;;;;;16.15;3.05;;;10.00;99.00;;;;;;5122857;27;20015;-38
2021/01/29 13:08:02;;;;;;;15.85;3.30;;;9.90;99.00;;;;;;5099327;27;20023;-41
2021/01/29 13:10:52;;;;;;;16.08;3.10;;;9.80;99.10;;;;;;5119728;27;20456;-41
2021/01/29 13:13:23;;;;;;;18.23;3.05;;;9.80;99.30;;;;;;5121231;27;20588;-40
2021/01/29 13:15:54;;;;;;;19.33;3.53;;;9.80;99.30;;;;;;5116133;27;20027;-41
2021/01/29 13:18:25;;;;;;;23.05;4.28;;;9.70;99.30;;;;;;5105336;27;20112;-41
2021/01/29 13:20:55;;;;;;;20.83;3.45;;;9.70;99.40;;;;;;5116444;27;20061;-41
2021/01/29 13:23:32;;;;;;;16.45;3.45;;;9.70;99.60;;;;;;5106214;28;20106;-43
2021/01/29 13:26:12;;;;;;;21.73;3.85;;;9.70;99.70;;;;;;5121961;27;20072;-42
2021/01/29 13:28:40;;;;;;;18.42;3.25;;;9.70;99.70;;;;;;5121700;27;20034;-41
2021/01/29 13:31:31;;;;;;;19.95;4.30;;;9.70;99.70;;;;;;5124558;27;20076;-42
2021/01/29 13:34:01;;;;;;;19.75;3.90;;;9.70;99.80;;;;;;5116948;27;20031;-42
2021/01/29 13:36:31;;;;;;;17.20;3.55;;;9.70;99.80;;;;;;5123790;27;20035;-42
2021/01/29 13:39:22;;;;;;;15.50;2.92;;;9.60;99.80;;;;;;5123887;27;20035;-41
2021/01/29 13:41:54;;;;;;;16.83;3.10;;;9.70;99.90;;;;;;5113436;28;20462;-43
2021/01/29 13:44:29;;;;;;;18.23;3.58;;;9.70;99.90;;;;;;5123939;28;20026;-42
2021/01/29 13:46:55;;;;;;;17.98;3.55;;;9.70;99.90;;;;;;5112345;28;20024;-44
2021/01/29 13:49:28;;;;;;;17.30;4.20;;;9.70;99.90;;;;;;5123545;28;20027;-41